Time;durP1;ratioP1;P1;durP2;ratioP2;P2;SDS_P1;SDS_P2;PMS_P1;PMS_P2;Temp;Humidity;BMP_temperature;BMP_pressure;BME280_temperature;BME280_humidity;BME280_pressure;Samples;Min_cycle;Max_cycle;Signal;HPM_P1;HPM_P2
2022/03/09 06:41:45;;;;;;;31.50;3.75;;;;;;;;;;6009734;23;20086;-83
2022/03/09 06:44:13;;;;;;;33.92;3.72;;;;;;;;;;6036062;23;20087;-81
2022/03/09 06:46:41;;;;;;;43.00;4.88;;;;;;;;;;6036256;23;20027;-84
2022/03/09 06:49:08;;;;;;;35.20;3.20;;;;;;;;;;6035571;23;20422;-82
2022/03/09 06:51:34;;;;;;;55.00;4.55;;;;;;;;;;6036111;23;20031;-87
2022/03/09 06:54:01;;;;;;;44.83;4.82;;;;;;;;;;6036151;23;20474;-84
2022/03/09 06:56:28;;;;;;;41.55;3.50;;;;;;;;;;6035714;23;20031;-82
2022/03/09 06:58:54;;;;;;;31.08;3.80;;;;;;;;;;6036106;23;20481;-82
2022/03/09 07:01:21;;;;;;;35.30;4.20;;;;;;;;;;6036645;23;20130;-84
2022/03/09 07:03:48;;;;;;;51.17;4.45;;;;;;;;;;6037207;23;20426;-82
2022/03/09 07:06:14;;;;;;;25.73;4.22;;;;;;;;;;6036433;23;20019;-84
2022/03/09 07:08:41;;;;;;;43.65;4.78;;;;;;;;;;6037415;23;20490;-83
2022/03/09 07:11:07;;;;;;;28.33;4.18;;;;;;;;;;6036042;23;20031;-82
2022/03/09 07:13:36;;;;;;;41.85;3.92;;;;;;;;;;6037138;23;20023;-81
2022/03/09 07:16:03;;;;;;;34.67;4.15;;;;;;;;;;6036817;23;20031;-81
2022/03/09 07:18:30;;;;;;;37.08;4.20;;;;;;;;;;6036511;23;20477;-79
2022/03/09 07:20:57;;;;;;;47.63;4.25;;;;;;;;;;6036981;23;20083;-83
2022/03/09 07:23:24;;;;;;;29.80;3.75;;;;;;;;;;6036487;23;20031;-82
2022/03/09 07:25:54;;;;;;;29.38;3.55;;;;;;;;;;6037204;23;20039;-82
2022/03/09 07:28:21;;;;;;;44.85;3.45;;;;;;;;;;6036336;23;20023;-81
2022/03/09 07:30:48;;;;;;;49.75;4.28;;;;;;;;;;6036153;23;20027;-80
2022/03/09 07:33:15;;;;;;;48.30;6.05;;;;;;;;;;6033550;23;20041;-81
2022/03/09 07:35:45;;;;;;;33.97;4.07;;;;;;;;;;6036249;23;20031;-80
2022/03/09 07:38:13;;;;;;;32.83;3.90;;;;;;;;;;6035558;23;20050;-82
2022/03/09 07:40:41;;;;;;;35.08;4.07;;;;;;;;;;6031320;23;20024;-81
2022/03/09 07:43:07;;;;;;;37.30;4.57;;;;;;;;;;6005882;23;20024;-81
2022/03/09 07:45:34;;;;;;;36.08;4.43;;;;;;;;;;6003334;23;20256;-80
2022/03/09 07:48:02;;;;;;;46.47;4.97;;;;;;;;;;5978517;23;20076;-80
2022/03/09 07:50:29;;;;;;;28.90;4.25;;;;;;;;;;6002760;23;20028;-80
2022/03/09 07:52:56;;;;;;;35.70;3.45;;;;;;;;;;6003133;23;20084;-81
2022/03/09 07:55:23;;;;;;;32.78;4.28;;;;;;;;;;6002522;23;20029;-80
2022/03/09 07:57:54;;;;;;;42.17;4.65;;;;;;;;;;6002942;23;20083;-80
2022/03/09 08:00:21;;;;;;;34.05;5.18;;;;;;;;;;6002206;23;20028;-79
2022/03/09 08:02:48;;;;;;;36.38;4.18;;;;;;;;;;6002753;23;20558;-79
2022/03/09 08:05:16;;;;;;;35.92;4.07;;;;;;;;;;6002056;23;20031;-79
2022/03/09 08:07:45;;;;;;;34.30;3.85;;;;;;;;;;6003084;23;20060;-80
2022/03/09 08:10:12;;;;;;;44.05;3.88;;;;;;;;;;6002480;23;20056;-81
2022/03/09 08:12:40;;;;;;;36.95;4.40;;;;;;;;;;6003612;23;20031;-82
2022/03/09 08:15:09;;;;;;;40.42;3.83;;;;;;;;;;6002601;23;20023;-82
2022/03/09 08:17:37;;;;;;;33.75;4.00;;;;;;;;;;6003328;23;20020;-82
2022/03/09 08:20:05;;;;;;;38.42;3.72;;;;;;;;;;6002904;23;20056;-82
2022/03/09 08:22:32;;;;;;;33.50;3.67;;;;;;;;;;6002980;23;20031;-82
2022/03/09 08:24:58;;;;;;;34.70;4.63;;;;;;;;;;6003404;23;20031;-82
2022/03/09 08:27:25;;;;;;;31.73;3.97;;;;;;;;;;6002888;23;20028;-83
2022/03/09 08:29:51;;;;;;;34.40;4.65;;;;;;;;;;5977921;23;20411;-82
2022/03/09 08:32:19;;;;;;;30.45;3.70;;;;;;;;;;6002145;23;20084;-82
2022/03/09 08:34:47;;;;;;;26.88;3.53;;;;;;;;;;6003289;23;20039;-83
2022/03/09 08:37:15;;;;;;;45.87;5.20;;;;;;;;;;5997989;23;20047;-81
2022/03/09 08:39:47;;;;;;;30.00;3.83;;;;;;;;;;6002856;23;20470;-83
2022/03/09 08:42:17;;;;;;;42.10;4.72;;;;;;;;;;6001897;23;20056;-84
2022/03/09 08:44:44;;;;;;;26.10;3.13;;;;;;;;;;6003107;23;20032;-84
2022/03/09 08:47:11;;;;;;;31.58;3.72;;;;;;;;;;6002387;23;20092;-83
2022/03/09 08:49:39;;;;;;;23.90;3.92;;;;;;;;;;6002436;23;20036;-83
2022/03/09 08:52:11;;;;;;;31.50;3.00;;;;;;;;;;6002121;23;20027;-83
2022/03/09 08:54:41;;;;;;;31.45;3.17;;;;;;;;;;5978057;23;20028;-81
2022/03/09 08:57:09;;;;;;;32.28;4.00;;;;;;;;;;6002240;23;20031;-82
2022/03/09 08:59:35;;;;;;;23.23;3.95;;;;;;;;;;6002927;23;20024;-83
2022/03/09 09:02:02;;;;;;;35.67;4.28;;;;;;;;;;6001565;23;20054;-81
2022/03/09 09:04:29;;;;;;;31.17;3.70;;;;;;;;;;5999610;23;20019;-82
2022/03/09 09:06:56;;;;;;;35.58;4.47;;;;;;;;;;6000593;23;20027;-81
2022/03/09 09:09:23;;;;;;;27.67;3.38;;;;;;;;;;6002309;23;20020;-81
2022/03/09 09:11:50;;;;;;;19.90;2.78;;;;;;;;;;6004067;23;20088;-80
2022/03/09 09:14:16;;;;;;;30.23;3.90;;;;;;;;;;6003567;23;20028;-81
2022/03/09 09:16:47;;;;;;;31.25;4.07;;;;;;;;;;5980019;23;20056;-82
2022/03/09 09:19:14;;;;;;;31.63;4.30;;;;;;;;;;6003922;23;20083;-82
2022/03/09 09:21:44;;;;;;;27.25;3.05;;;;;;;;;;6004243;23;20042;-80
2022/03/09 09:24:11;;;;;;;35.53;3.80;;;;;;;;;;6004150;23;20562;-81
2022/03/09 09:26:37;;;;;;;24.80;3.40;;;;;;;;;;6004689;23;20501;-82
2022/03/09 09:29:14;;;;;;;26.45;3.95;;;;;;;;;;6004049;23;20024;-82
2022/03/09 09:32:02;;;;;;;28.58;4.10;;;;;;;;;;6002230;23;20111;-82
2022/03/09 09:34:29;;;;;;;22.27;3.35;;;;;;;;;;6003518;23;20095;-81
2022/03/09 09:36:55;;;;;;;29.50;3.63;;;;;;;;;;6004012;23;20024;-80
2022/03/09 09:39:22;;;;;;;19.33;3.00;;;;;;;;;;6003368;23;20482;-81
2022/03/09 09:41:52;;;;;;;26.92;3.20;;;;;;;;;;6003134;23;20024;-81
2022/03/09 09:44:23;;;;;;;25.67;3.25;;;;;;;;;;6002633;23;20103;-81
2022/03/09 09:46:52;;;;;;;24.10;2.85;;;;;;;;;;6003393;23;20027;-81
2022/03/09 09:49:24;;;;;;;29.00;3.78;;;;;;;;;;6002692;23;20470;-83
2022/03/09 09:51:52;;;;;;;25.27;3.67;;;;;;;;;;6000258;23;20106;-82
2022/03/09 09:54:22;;;;;;;27.42;3.53;;;;;;;;;;6002195;23;20031;-83
2022/03/09 09:56:52;;;;;;;24.52;3.33;;;;;;;;;;6003300;23;20107;-83
2022/03/09 09:59:18;;;;;;;28.02;3.53;;;;;;;;;;5977716;23;20076;-82
2022/03/09 10:01:45;;;;;;;23.70;3.00;;;;;;;;;;6003189;23;20367;-83
2022/03/09 10:04:12;;;;;;;20.92;3.67;;;;;;;;;;6002747;23;20024;-83
2022/03/09 10:06:39;;;;;;;24.88;3.30;;;;;;;;;;6003877;23;20371;-83
2022/03/09 10:09:07;;;;;;;25.08;3.80;;;;;;;;;;6002328;23;20036;-82
2022/03/09 10:11:47;;;;;;;;;;;;;;;;;;6003603;23;20056;-81
2022/03/09 10:14:15;;;;;;;34.67;3.53;;;;;;;;;;6002862;23;19922;-84
2022/03/09 10:17:06;;;;;;;25.23;3.67;;;;;;;;;;5978311;23;20031;-85
2022/03/09 10:19:35;;;;;;;31.75;4.15;;;;;;;;;;5977103;23;20024;-84
2022/03/09 10:22:21;;;;;;;;;;;;;;;;;;6004476;23;20088;-85
2022/03/09 10:25:11;;;;;;;32.65;3.45;;;;;;;;;;6002069;23;19985;-85
2022/03/09 10:27:46;;;;;;;26.75;2.92;;;;;;;;;;6003039;23;20087;-84
2022/03/09 10:30:17;;;;;;;24.13;4.10;;;;;;;;;;6001656;23;20091;-83
2022/03/09 10:32:56;;;;;;;26.10;4.10;;;;;;;;;;5978655;23;20043;-82
2022/03/09 10:35:29;;;;;;;;;;;;;;;;;;6003692;23;20072;-83
2022/03/09 10:38:00;;;;;;;31.23;4.45;;;;;;;;;;6004107;23;19918;-80
2022/03/09 10:40:28;;;;;;;41.10;4.75;;;;;;;;;;6002310;23;20109;-83
2022/03/09 10:43:14;;;;;;;32.00;5.05;;;;;;;;;;6001474;23;20028;-83
2022/03/09 10:46:05;;;;;;;29.95;3.92;;;;;;;;;;6002274;23;20399;-82
2022/03/09 10:48:53;;;;;;;31.48;3.95;;;;;;;;;;6002030;23;20023;-81
2022/03/09 10:51:26;;;;;;;29.45;4.40;;;;;;;;;;6001464;23;20524;-86
2022/03/09 10:53:58;;;;;;;30.83;3.88;;;;;;;;;;5978910;23;20468;-84
2022/03/09 10:56:25;;;;;;;30.98;4.22;;;;;;;;;;6002069;23;20095;-83
2022/03/09 10:58:51;;;;;;;40.95;5.30;;;;;;;;;;6002963;23;20034;-83
2022/03/09 11:01:19;;;;;;;30.15;4.07;;;;;;;;;;6003134;23;20084;-82
2022/03/09 11:03:47;;;;;;;36.72;6.43;;;;;;;;;;6002517;23;20035;-83
2022/03/09 11:06:17;;;;;;;31.60;3.97;;;;;;;;;;6002908;23;20027;-84
2022/03/09 11:08:44;;;;;;;33.65;4.47;;;;;;;;;;6003423;23;20031;-82
2022/03/09 11:11:14;;;;;;;47.58;5.30;;;;;;;;;;5999450;23;20031;-83
2022/03/09 11:13:41;;;;;;;32.60;4.28;;;;;;;;;;6002320;23;20102;-82
2022/03/09 11:16:08;;;;;;;37.08;4.93;;;;;;;;;;6000337;23;20048;-82
2022/03/09 11:18:36;;;;;;;28.20;3.35;;;;;;;;;;6000740;23;20028;-81
2022/03/09 11:21:06;;;;;;;32.22;4.43;;;;;;;;;;6002428;23;20027;-84
2022/03/09 11:23:34;;;;;;;34.08;3.80;;;;;;;;;;6002867;23;20028;-84
2022/03/09 11:26:44;;;;;;;42.90;4.40;;;;;;;;;;6003255;23;20036;-82
2022/03/09 11:29:12;;;;;;;33.33;3.50;;;;;;;;;;5835397;24;20260;-84
2022/03/09 11:31:51;;;;;;;26.35;3.28;;;;;;;;;;5834837;24;20073;-81
2022/03/09 11:34:43;;;;;;;29.33;4.38;;;;;;;;;;5835367;24;20027;-84
2022/03/09 11:37:34;;;;;;;19.95;3.70;;;;;;;;;;5834807;24;20026;-81
2022/03/09 11:40:08;;;;;;;30.23;4.70;;;;;;;;;;5834619;24;20037;-82
2022/03/09 11:42:39;;;;;;;31.50;4.95;;;;;;;;;;5890587;24;20060;-84
2022/03/09 11:45:15;;;;;;;;;;;;;;;;;;5890431;24;20036;-82
2022/03/09 11:48:14;;;;;;;26.40;4.22;;;;;;;;;;5889290;24;20469;-82
2022/03/09 11:50:47;;;;;;;36.10;4.55;;;;;;;;;;5851935;24;20054;-83
2022/03/09 11:53:15;;;;;;;22.90;4.78;;;;;;;;;;5888655;24;20032;-84
2022/03/09 11:55:41;;;;;;;41.33;5.25;;;;;;;;;;5890159;24;20037;-83
2022/03/09 11:58:12;;;;;;;41.78;5.32;;;;;;;;;;5888976;24;20034;-81
2022/03/09 12:01:11;;;;;;;33.33;5.40;;;;;;;;;;6005134;23;20047;-83
2022/03/09 12:03:39;;;;;;;35.20;5.43;;;;;;;;;;6001774;23;20030;-84
2022/03/09 12:06:44;;;;;;;38.63;7.20;;;;;;;;;;6031565;23;20027;-85
2022/03/09 12:09:11;;;;;;;38.55;6.50;;;;;;;;;;6028712;23;20102;-83
2022/03/09 12:12:08;;;;;;;43.00;8.70;;;;;;;;;;6031854;23;20023;-83
2022/03/09 12:15:06;;;;;;;45.83;10.05;;;;;;;;;;6031598;23;20027;-83
2022/03/09 12:17:43;;;;;;;33.77;7.70;;;;;;;;;;6032132;23;20015;-84
2022/03/09 12:20:24;;;;;;;36.15;7.78;;;;;;;;;;6031293;23;20255;-83
2022/03/09 12:22:56;;;;;;;38.53;5.95;;;;;;;;;;6032137;23;20025;-84
2022/03/09 12:25:46;;;;;;;33.55;6.95;;;;;;;;;;6032217;23;20023;-84
2022/03/09 12:28:25;;;;;;;39.08;6.10;;;;;;;;;;6031336;23;20130;-84
2022/03/09 12:30:53;;;;;;;35.85;5.85;;;;;;;;;;6031681;23;20135;-84
2022/03/09 12:33:31;;;;;;;28.48;5.97;;;;;;;;;;6031224;23;20046;-84
2022/03/09 12:36:20;;;;;;;33.28;5.75;;;;;;;;;;6030732;23;20126;-82
2022/03/09 12:39:05;;;;;;;40.72;5.68;;;;;;;;;;6031174;23;20034;-84
2022/03/09 12:41:38;;;;;;;29.50;7.32;;;;;;;;;;6029380;23;20031;-82
2022/03/09 12:44:09;;;;;;;35.40;6.20;;;;;;;;;;6032085;23;20019;-83
2022/03/09 12:46:39;;;;;;;30.50;5.95;;;;;;;;;;6033966;23;20502;-83
2022/03/09 12:49:17;;;;;;;38.83;6.93;;;;;;;;;;6033661;23;20027;-82
2022/03/09 12:51:54;;;;;;;31.52;6.25;;;;;;;;;;6034745;23;20027;-83
2022/03/09 12:54:47;;;;;;;38.38;6.65;;;;;;;;;;6034170;23;20020;-84
2022/03/09 12:57:25;;;;;;;33.85;7.10;;;;;;;;;;6033182;23;20490;-86
2022/03/09 12:59:56;;;;;;;31.33;7.40;;;;;;;;;;6033196;23;20035;-84
2022/03/09 13:02:24;;;;;;;38.38;6.90;;;;;;;;;;6032551;23;20024;-84
2022/03/09 13:05:00;;;;;;;39.17;6.95;;;;;;;;;;6035207;23;20399;-89
2022/03/09 13:07:28;;;;;;;30.08;6.45;;;;;;;;;;6034166;23;20031;-91
2022/03/09 13:10:12;;;;;;;36.05;7.40;;;;;;;;;;6034713;23;20015;-89
2022/03/09 13:12:54;;;;;;;34.83;6.60;;;;;;;;;;6034015;23;20020;-89
2022/03/09 13:15:33;;;;;;;34.30;6.47;;;;;;;;;;6036500;23;20023;-90
2022/03/09 13:18:00;;;;;;;29.23;6.70;;;;;;;;;;6037234;23;20441;-90
2022/03/09 13:20:27;;;;;;;33.47;6.88;;;;;;;;;;6036310;23;20031;-90
2022/03/09 13:22:54;;;;;;;38.60;7.53;;;;;;;;;;6035867;23;20026;-90
2022/03/09 13:25:28;;;;;;;34.15;6.93;;;;;;;;;;6036166;23;20057;-87
2022/03/09 13:28:05;;;;;;;37.78;7.90;;;;;;;;;;6035684;23;20019;-89
2022/03/09 13:30:33;;;;;;;37.25;7.75;;;;;;;;;;6035857;23;20087;-93
2022/03/09 13:33:11;;;;;;;34.00;7.13;;;;;;;;;;6022435;23;20145;-91
2022/03/09 13:35:50;;;;;;;37.22;6.35;;;;;;;;;;6035408;23;20027;-89
2022/03/09 13:38:25;;;;;;;25.92;7.80;;;;;;;;;;6032375;23;20023;-90
2022/03/09 13:40:58;;;;;;;29.85;5.95;;;;;;;;;;6028209;23;20057;-88
2022/03/09 13:43:29;;;;;;;36.08;6.32;;;;;;;;;;6006339;23;20046;-89
2022/03/09 13:45:56;;;;;;;40.63;6.55;;;;;;;;;;6007024;23;20023;-88
2022/03/09 13:48:26;;;;;;;39.65;6.57;;;;;;;;;;6005744;23;24274;-89
2022/03/09 13:51:00;;;;;;;32.00;6.40;;;;;;;;;;5981521;23;20027;-88
2022/03/09 13:53:36;;;;;;;37.05;6.05;;;;;;;;;;5981811;23;20076;-89
2022/03/09 13:56:17;;;;;;;32.63;5.97;;;;;;;;;;6006226;23;20028;-86
2022/03/09 13:58:44;;;;;;;40.13;6.55;;;;;;;;;;5980636;23;20058;-87
2022/03/09 14:01:17;;;;;;;36.78;5.88;;;;;;;;;;6003826;23;20026;-85
2022/03/09 14:03:52;;;;;;;38.88;5.78;;;;;;;;;;5981740;23;20027;-87
2022/03/09 14:06:24;;;;;;;30.30;5.63;;;;;;;;;;5990909;23;20026;-86
2022/03/09 14:08:53;;;;;;;32.55;5.75;;;;;;;;;;6005811;23;20360;-86
2022/03/09 14:11:21;;;;;;;40.78;6.35;;;;;;;;;;6005059;23;20039;-91
2022/03/09 14:14:00;;;;;;;38.00;5.90;;;;;;;;;;5981780;23;20020;-86
2022/03/09 14:16:38;;;;;;;32.85;6.95;;;;;;;;;;6005735;23;20094;-85
2022/03/09 14:19:08;;;;;;;47.63;6.90;;;;;;;;;;5980529;23;20080;-88
2022/03/09 14:21:37;;;;;;;38.60;6.03;;;;;;;;;;6005855;23;20409;-86
2022/03/09 14:24:04;;;;;;;38.33;6.40;;;;;;;;;;6004600;23;20020;-88
2022/03/09 14:26:34;;;;;;;37.75;5.53;;;;;;;;;;6006411;23;20035;-88
2022/03/09 14:29:03;;;;;;;32.45;5.90;;;;;;;;;;6006530;23;20063;-87
2022/03/09 14:31:29;;;;;;;34.13;6.45;;;;;;;;;;6004928;23;20020;-88
2022/03/09 14:34:01;;;;;;;37.50;6.03;;;;;;;;;;6003462;23;20051;-88
2022/03/09 14:36:36;;;;;;;40.47;7.60;;;;;;;;;;5959488;23;20036;-88
2022/03/09 14:39:08;;;;;;;31.95;5.72;;;;;;;;;;6005270;23;20213;-86
2022/03/09 14:41:36;;;;;;;41.10;6.88;;;;;;;;;;6002201;23;20030;-87
2022/03/09 14:44:03;;;;;;;29.45;6.38;;;;;;;;;;5988522;23;20199;-88
2022/03/09 14:46:30;;;;;;;39.15;7.95;;;;;;;;;;6004904;23;20027;-90
2022/03/09 14:48:57;;;;;;;48.10;9.02;;;;;;;;;;5967458;23;20475;-90
2022/03/09 14:51:25;;;;;;;36.20;8.10;;;;;;;;;;5979681;23;20118;-90
2022/03/09 14:53:52;;;;;;;23.85;4.93;;;;;;;;;;5980924;23;20035;-88
2022/03/09 14:56:20;;;;;;;30.05;4.35;;;;;;;;;;6003468;23;20031;-87
2022/03/09 14:58:49;;;;;;;30.80;6.47;;;;;;;;;;5979288;23;20479;-87
2022/03/09 15:01:18;;;;;;;29.48;5.68;;;;;;;;;;6003212;23;20054;-86
2022/03/09 15:03:45;;;;;;;29.98;6.22;;;;;;;;;;5966055;23;20031;-89
2022/03/09 15:06:12;;;;;;;29.02;5.85;;;;;;;;;;6002575;23;20032;-89
2022/03/09 15:08:39;;;;;;;29.42;4.28;;;;;;;;;;6005492;23;20024;-88
2022/03/09 15:11:07;;;;;;;28.35;5.40;;;;;;;;;;5990098;23;20134;-88
2022/03/09 15:13:40;;;;;;;25.88;4.35;;;;;;;;;;6003530;23;20028;-88
2022/03/09 15:16:10;;;;;;;20.67;3.33;;;;;;;;;;5978765;23;20030;-88
2022/03/09 15:18:42;;;;;;;24.23;4.90;;;;;;;;;;5991721;23;20061;-88
2022/03/09 15:21:09;;;;;;;21.10;4.30;;;;;;;;;;5977944;23;20075;-91
2022/03/09 15:23:39;;;;;;;26.85;4.75;;;;;;;;;;6003918;23;20260;-89
2022/03/09 15:26:06;;;;;;;30.55;4.65;;;;;;;;;;5989722;23;20489;-86
2022/03/09 15:28:37;;;;;;;25.63;6.10;;;;;;;;;;6000255;23;20031;-85
2022/03/09 15:31:04;;;;;;;33.88;5.07;;;;;;;;;;6002587;23;20746;-83
2022/03/09 15:33:32;;;;;;;20.63;4.43;;;;;;;;;;6003102;23;20550;-85
2022/03/09 15:35:59;;;;;;;30.88;6.18;;;;;;;;;;6003856;23;20479;-85
2022/03/09 15:38:26;;;;;;;28.55;5.25;;;;;;;;;;5978372;23;20119;-83
2022/03/09 15:40:52;;;;;;;32.22;6.85;;;;;;;;;;6002122;23;20028;-85
2022/03/09 15:43:20;;;;;;;28.80;5.47;;;;;;;;;;6002189;23;20023;-84
2022/03/09 15:45:47;;;;;;;40.20;6.85;;;;;;;;;;6002404;23;20027;-82
2022/03/09 15:48:14;;;;;;;35.45;6.88;;;;;;;;;;6002122;23;20436;-84
2022/03/09 15:50:44;;;;;;;31.63;6.97;;;;;;;;;;6001748;23;20027;-83
2022/03/09 15:53:11;;;;;;;32.75;6.78;;;;;;;;;;6001327;23;20020;-84
2022/03/09 15:55:40;;;;;;;32.00;6.13;;;;;;;;;;5976906;23;20024;-82
2022/03/09 15:58:07;;;;;;;31.30;5.97;;;;;;;;;;6002187;23;20032;-82
2022/03/09 16:00:35;;;;;;;30.70;7.25;;;;;;;;;;6002444;23;20035;-82
2022/03/09 16:03:02;;;;;;;38.63;6.97;;;;;;;;;;6002366;23;20028;-82
2022/03/09 16:05:30;;;;;;;35.30;6.10;;;;;;;;;;5977852;23;20091;-84
2022/03/09 16:07:58;;;;;;;36.03;5.00;;;;;;;;;;5978973;23;20039;-83
2022/03/09 16:10:24;;;;;;;30.53;6.20;;;;;;;;;;6002036;23;20032;-84
2022/03/09 16:12:51;;;;;;;26.90;5.72;;;;;;;;;;5999179;23;20027;-82
2022/03/09 16:15:18;;;;;;;32.92;5.38;;;;;;;;;;5994619;23;20483;-81
2022/03/09 16:17:46;;;;;;;39.03;5.90;;;;;;;;;;6001199;23;20099;-81
2022/03/09 16:20:13;;;;;;;35.78;7.22;;;;;;;;;;6001224;23;20111;-82
2022/03/09 16:22:42;;;;;;;44.95;7.10;;;;;;;;;;6002099;23;20024;-85
2022/03/09 16:25:09;;;;;;;29.88;6.57;;;;;;;;;;6001675;23;20088;-83
2022/03/09 16:27:36;;;;;;;37.22;5.38;;;;;;;;;;6003177;23;20028;-83
2022/03/09 16:30:05;;;;;;;42.60;7.63;;;;;;;;;;6005287;23;20028;-84
2022/03/09 16:32:32;;;;;;;42.08;9.20;;;;;;;;;;5978501;23;20035;-82
2022/03/09 16:35:05;;;;;;;52.38;9.63;;;;;;;;;;6002218;23;20024;-83
2022/03/09 16:37:31;;;;;;;37.92;6.78;;;;;;;;;;6002613;23;20450;-82
2022/03/09 16:39:58;;;;;;;44.35;8.60;;;;;;;;;;5977318;23;20088;-83
2022/03/09 16:42:25;;;;;;;38.53;6.18;;;;;;;;;;6000441;23;20027;-82
2022/03/09 16:44:52;;;;;;;31.45;5.85;;;;;;;;;;5977065;23;20024;-84
2022/03/09 16:47:18;;;;;;;38.15;5.65;;;;;;;;;;5975404;23;20085;-82
2022/03/09 16:49:45;;;;;;;37.75;5.63;;;;;;;;;;6001183;23;20087;-84
2022/03/09 16:52:11;;;;;;;30.25;5.97;;;;;;;;;;6001471;23;20028;-83
2022/03/09 16:54:38;;;;;;;32.83;5.90;;;;;;;;;;6001737;23;20471;-84
2022/03/09 16:57:05;;;;;;;26.27;4.75;;;;;;;;;;6000701;23;20112;-84
2022/03/09 16:59:31;;;;;;;34.13;5.32;;;;;;;;;;5979326;23;20036;-82
2022/03/09 17:01:58;;;;;;;40.90;5.38;;;;;;;;;;6002138;23;20088;-83
2022/03/09 17:04:25;;;;;;;38.63;5.15;;;;;;;;;;5977785;23;20031;-84
2022/03/09 17:06:52;;;;;;;32.45;4.40;;;;;;;;;;6002427;23;20031;-84
2022/03/09 17:09:18;;;;;;;32.58;5.03;;;;;;;;;;6002854;23;20026;-88
2022/03/09 17:11:47;;;;;;;41.65;5.05;;;;;;;;;;5977833;23;20031;-87
2022/03/09 17:14:14;;;;;;;32.50;6.72;;;;;;;;;;6000769;23;20042;-85
2022/03/09 17:16:41;;;;;;;32.92;5.07;;;;;;;;;;6002995;23;20020;-87
2022/03/09 17:19:08;;;;;;;38.05;5.55;;;;;;;;;;6002765;23;20032;-87
2022/03/09 17:21:35;;;;;;;38.42;4.82;;;;;;;;;;6002516;23;20031;-85
2022/03/09 17:24:02;;;;;;;32.25;5.47;;;;;;;;;;6001920;23;20027;-85
2022/03/09 17:26:28;;;;;;;34.30;6.50;;;;;;;;;;5999358;23;20036;-82
2022/03/09 17:28:55;;;;;;;28.27;4.57;;;;;;;;;;6001589;23;20123;-84
2022/03/09 17:31:22;;;;;;;37.63;4.47;;;;;;;;;;6001919;23;20024;-83
2022/03/09 17:33:52;;;;;;;35.22;5.88;;;;;;;;;;6003518;23;20019;-83
2022/03/09 17:36:19;;;;;;;28.60;4.47;;;;;;;;;;6002820;23;20028;-85
2022/03/09 17:38:45;;;;;;;26.20;5.35;;;;;;;;;;6002401;23;20032;-83
2022/03/09 17:41:12;;;;;;;31.02;6.85;;;;;;;;;;6001359;23;20034;-84
2022/03/09 17:43:39;;;;;;;23.70;4.57;;;;;;;;;;6003621;23;20035;-83
2022/03/09 17:46:06;;;;;;;29.90;4.82;;;;;;;;;;6002262;23;20048;-83
2022/03/09 17:48:33;;;;;;;37.17;6.05;;;;;;;;;;6001468;23;20049;-83
2022/03/09 17:51:01;;;;;;;31.20;5.72;;;;;;;;;;6002639;23;20035;-84
2022/03/09 17:53:27;;;;;;;35.25;5.53;;;;;;;;;;6002718;23;20755;-84
2022/03/09 17:55:54;;;;;;;25.50;6.15;;;;;;;;;;6003991;23;20027;-84
2022/03/09 17:58:20;;;;;;;26.75;4.97;;;;;;;;;;6003979;23;20371;-84
2022/03/09 18:00:47;;;;;;;29.80;4.97;;;;;;;;;;6002519;23;20027;-84
2022/03/09 18:03:14;;;;;;;24.05;4.35;;;;;;;;;;6002436;23;20111;-83
2022/03/09 18:05:41;;;;;;;23.92;4.50;;;;;;;;;;6002139;23;20028;-84
2022/03/09 18:08:13;;;;;;;27.65;4.50;;;;;;;;;;6002614;23;20027;-85
2022/03/09 18:10:39;;;;;;;23.77;4.82;;;;;;;;;;6003262;23;20031;-85
2022/03/09 18:13:08;;;;;;;28.05;4.07;;;;;;;;;;6002404;23;20479;-84
2022/03/09 18:15:34;;;;;;;30.88;5.78;;;;;;;;;;5978512;23;20031;-85
2022/03/09 18:18:01;;;;;;;29.88;6.47;;;;;;;;;;6002661;23;20023;-84
2022/03/09 18:20:28;;;;;;;34.78;5.15;;;;;;;;;;6001485;23;20084;-85
2022/03/09 18:22:55;;;;;;;25.58;5.15;;;;;;;;;;6002758;23;20562;-84
2022/03/09 18:25:22;;;;;;;34.20;5.40;;;;;;;;;;6003424;23;20486;-84
2022/03/09 18:27:51;;;;;;;25.35;5.13;;;;;;;;;;6002081;23;20035;-84
2022/03/09 18:30:18;;;;;;;28.35;4.97;;;;;;;;;;6002019;23;20028;-84
2022/03/09 18:32:45;;;;;;;34.75;5.50;;;;;;;;;;6002060;23;20091;-83
2022/03/09 18:35:13;;;;;;;27.65;5.03;;;;;;;;;;5977959;23;20046;-84
2022/03/09 18:37:43;;;;;;;26.52;5.35;;;;;;;;;;6002870;23;20039;-85
2022/03/09 18:40:16;;;;;;;44.67;4.90;;;;;;;;;;6000637;23;20131;-84
2022/03/09 18:42:43;;;;;;;28.10;4.72;;;;;;;;;;6002576;23;20037;-85
2022/03/09 18:45:13;;;;;;;28.77;5.07;;;;;;;;;;6002674;23;20020;-84
2022/03/09 18:47:40;;;;;;;29.45;5.45;;;;;;;;;;6003747;23;20056;-84
2022/03/09 18:50:07;;;;;;;35.00;6.25;;;;;;;;;;6002937;23;20408;-84
2022/03/09 18:52:34;;;;;;;36.08;5.45;;;;;;;;;;6002654;23;20482;-83
2022/03/09 18:55:01;;;;;;;29.98;5.63;;;;;;;;;;6002156;23;20439;-83
2022/03/09 18:57:27;;;;;;;29.90;5.22;;;;;;;;;;5977272;23;20030;-83
2022/03/09 18:59:54;;;;;;;35.08;5.60;;;;;;;;;;6003559;23;20079;-83
2022/03/09 19:02:21;;;;;;;31.88;4.82;;;;;;;;;;6002105;23;20032;-84
2022/03/09 19:04:47;;;;;;;35.97;5.03;;;;;;;;;;6002987;23;20083;-83
2022/03/09 19:07:14;;;;;;;23.45;4.15;;;;;;;;;;5978132;23;20476;-84
2022/03/09 19:09:42;;;;;;;33.47;4.93;;;;;;;;;;6002129;23;20083;-83
2022/03/09 19:12:10;;;;;;;27.88;4.35;;;;;;;;;;6001222;23;20028;-83
2022/03/09 19:14:38;;;;;;;24.25;4.63;;;;;;;;;;6002216;23;20711;-83
2022/03/09 19:17:05;;;;;;;23.73;4.78;;;;;;;;;;5975199;23;20043;-83
2022/03/09 19:19:32;;;;;;;27.55;4.78;;;;;;;;;;6001823;23;20103;-83
2022/03/09 19:22:00;;;;;;;32.42;4.70;;;;;;;;;;5977927;23;20095;-82
2022/03/09 19:24:28;;;;;;;32.97;5.75;;;;;;;;;;6002298;23;20502;-84
2022/03/09 19:26:55;;;;;;;33.08;5.00;;;;;;;;;;6002844;23;20035;-83
2022/03/09 19:29:22;;;;;;;25.90;4.65;;;;;;;;;;6002750;23;20095;-82
2022/03/09 19:31:48;;;;;;;33.85;5.00;;;;;;;;;;6003320;23;20028;-84
2022/03/09 19:34:15;;;;;;;35.10;5.40;;;;;;;;;;6002509;23;20547;-83
2022/03/09 19:36:42;;;;;;;32.05;6.63;;;;;;;;;;6003044;23;20020;-84
2022/03/09 19:39:28;;;;;;;34.78;5.80;;;;;;;;;;6003381;23;20095;-83
2022/03/09 19:41:55;;;;;;;43.45;7.30;;;;;;;;;;6011482;23;20020;-82
2022/03/09 19:44:22;;;;;;;43.70;10.18;;;;;;;;;;6031175;23;20023;-83
2022/03/09 19:46:48;;;;;;;43.28;8.02;;;;;;;;;;6032179;23;20023;-83
2022/03/09 19:49:15;;;;;;;34.38;7.40;;;;;;;;;;6029898;23;20023;-83
2022/03/09 19:51:42;;;;;;;38.50;7.72;;;;;;;;;;6031386;23;20067;-83
2022/03/09 19:54:08;;;;;;;53.22;15.63;;;;;;;;;;6030975;23;20027;-82
2022/03/09 19:56:35;;;;;;;53.28;12.00;;;;;;;;;;6031528;23;20087;-84
2022/03/09 19:59:02;;;;;;;37.17;7.70;;;;;;;;;;6032025;23;20031;-83
2022/03/09 20:01:31;;;;;;;27.88;7.18;;;;;;;;;;6030403;23;20733;-82
2022/03/09 20:03:58;;;;;;;29.25;5.43;;;;;;;;;;6031092;23;20355;-82
2022/03/09 20:06:25;;;;;;;31.98;5.05;;;;;;;;;;6029861;23;20031;-82
2022/03/09 20:08:52;;;;;;;26.65;4.60;;;;;;;;;;6030521;23;20079;-83
2022/03/09 20:11:19;;;;;;;26.85;4.82;;;;;;;;;;6030589;23;20087;-83
2022/03/09 20:13:46;;;;;;;20.42;4.10;;;;;;;;;;6031155;23;20023;-86
2022/03/09 20:16:13;;;;;;;25.42;5.28;;;;;;;;;;6030715;23;20034;-86
2022/03/09 20:18:40;;;;;;;30.08;4.72;;;;;;;;;;6030682;23;20035;-86
2022/03/09 20:21:07;;;;;;;24.55;4.00;;;;;;;;;;6030858;23;20043;-83
2022/03/09 20:23:37;;;;;;;20.98;2.95;;;;;;;;;;6029019;23;20043;-85
2022/03/09 20:26:08;;;;;;;26.15;3.67;;;;;;;;;;6031100;23;20698;-85
2022/03/09 20:28:37;;;;;;;32.55;4.05;;;;;;;;;;6030279;23;20705;-82
2022/03/09 20:31:06;;;;;;;24.40;3.67;;;;;;;;;;6030327;23;20721;-83
2022/03/09 20:33:33;;;;;;;20.40;4.10;;;;;;;;;;6030472;23;20031;-85
2022/03/09 20:35:59;;;;;;;22.83;3.55;;;;;;;;;;6031976;23;20399;-82
2022/03/09 20:38:26;;;;;;;36.75;4.78;;;;;;;;;;6030898;23;20035;-85
2022/03/09 20:40:53;;;;;;;27.17;4.32;;;;;;;;;;6024431;23;20479;-84
2022/03/09 20:43:20;;;;;;;33.53;4.43;;;;;;;;;;6002985;23;20076;-85
2022/03/09 20:45:46;;;;;;;37.22;5.75;;;;;;;;;;5979133;23;20057;-85
2022/03/09 20:48:13;;;;;;;43.33;7.20;;;;;;;;;;6002958;23;20412;-83
2022/03/09 20:50:40;;;;;;;35.47;6.22;;;;;;;;;;5978005;23;20032;-83
2022/03/09 20:53:07;;;;;;;38.55;5.55;;;;;;;;;;6002141;23;20056;-80
2022/03/09 20:55:34;;;;;;;46.70;5.85;;;;;;;;;;6003100;23;20114;-81
2022/03/09 20:58:01;;;;;;;32.28;5.47;;;;;;;;;;5977805;23;20036;-84
2022/03/09 21:00:30;;;;;;;36.38;5.03;;;;;;;;;;6001990;23;20039;-81
2022/03/09 21:02:57;;;;;;;43.83;5.68;;;;;;;;;;6002640;23;20020;-79
2022/03/09 21:05:25;;;;;;;33.78;5.25;;;;;;;;;;6001641;23;20023;-83
2022/03/09 21:07:51;;;;;;;42.33;6.00;;;;;;;;;;6004414;23;20023;-83
2022/03/09 21:10:19;;;;;;;41.75;5.28;;;;;;;;;;6003764;23;20079;-81
2022/03/09 21:12:46;;;;;;;40.78;5.50;;;;;;;;;;6003863;23;20038;-82
2022/03/09 21:15:13;;;;;;;29.00;4.18;;;;;;;;;;6004380;23;20032;-83
2022/03/09 21:17:41;;;;;;;31.98;4.28;;;;;;;;;;5980218;23;20507;-83
2022/03/09 21:20:08;;;;;;;27.45;4.28;;;;;;;;;;6004544;23;20490;-82
2022/03/09 21:22:36;;;;;;;26.43;3.93;;;;;;;;;;6004947;23;20366;-83
2022/03/09 21:25:06;;;;;;;24.27;3.40;;;;;;;;;;6003658;23;20257;-83
2022/03/09 21:27:38;;;;;;;24.58;2.90;;;;;;;;;;6004378;23;20085;-83